Time;durP1;ratioP1;P1;durP2;ratioP2;P2;SDS_P1;SDS_P2;PMS_P1;PMS_P2;Temp;Humidity;BMP_temperature;BMP_pressure;BME280_temperature;BME280_humidity;BME280_pressure;Samples;Min_cycle;Max_cycle;Signal;HPM_P1;HPM_P2
2021/06/02 00:02:15;;;;;;;6.70;4.63;;;20.30;45.30;;;;;;5081377;28;20200;-83
2021/06/02 00:04:53;;;;;;;6.72;4.80;;;20.30;45.60;;;;;;5090853;28;20171;-83
2021/06/02 00:07:25;;;;;;;8.82;5.25;;;20.20;45.70;;;;;;5122493;28;20178;-84
2021/06/02 00:09:53;;;;;;;5.03;4.47;;;20.10;45.90;;;;;;5124015;28;20186;-84
2021/06/02 00:12:20;;;;;;;6.07;4.55;;;20.10;46.00;;;;;;5122020;28;20215;-84
2021/06/02 00:14:46;;;;;;;4.85;3.90;;;20.10;46.10;;;;;;5122304;28;20180;-83
2021/06/02 00:17:12;;;;;;;6.90;4.45;;;20.10;46.10;;;;;;5115521;28;20616;-84
2021/06/02 00:19:38;;;;;;;5.60;4.80;;;20.00;46.30;;;;;;5102160;28;20271;-83
2021/06/02 00:22:06;;;;;;;5.25;4.75;;;19.90;46.50;;;;;;5101564;28;20187;-83
2021/06/02 00:24:32;;;;;;;7.15;4.18;;;19.90;46.70;;;;;;5102014;28;20220;-83
2021/06/02 00:27:00;;;;;;;9.65;3.83;;;19.90;46.80;;;;;;5101865;28;20176;-83
2021/06/02 00:29:29;;;;;;;5.63;4.70;;;20.00;46.70;;;;;;5110370;28;20262;-83
2021/06/02 00:31:55;;;;;;;8.75;5.05;;;20.00;46.60;;;;;;5122535;28;20175;-84
2021/06/02 00:34:22;;;;;;;6.00;4.38;;;20.10;46.60;;;;;;5123498;28;20224;-83
2021/06/02 00:36:49;;;;;;;5.30;4.78;;;20.10;46.40;;;;;;5123096;28;20186;-83
2021/06/02 00:39:16;;;;;;;6.38;5.32;;;20.00;47.10;;;;;;5124152;28;20737;-83
2021/06/02 00:41:44;;;;;;;5.15;4.65;;;20.00;46.30;;;;;;5122978;28;20261;-83
2021/06/02 00:44:12;;;;;;;4.13;3.70;;;20.00;46.30;;;;;;5122356;28;20575;-82
2021/06/02 00:46:39;;;;;;;5.03;4.63;;;19.90;46.30;;;;;;5122003;28;20663;-82
2021/06/02 00:49:10;;;;;;;4.80;3.95;;;20.00;46.60;;;;;;5124063;28;20265;-83
2021/06/02 00:51:36;;;;;;;8.02;4.30;;;20.00;46.50;;;;;;5121334;28;20258;-83
2021/06/02 00:54:05;;;;;;;8.13;4.15;;;19.90;46.60;;;;;;5122348;28;20203;-83
2021/06/02 00:56:35;;;;;;;4.72;4.05;;;20.00;46.60;;;;;;5123542;28;20182;-84
2021/06/02 00:59:03;;;;;;;5.03;4.45;;;19.90;46.60;;;;;;5123510;28;20217;-83
2021/06/02 01:01:33;;;;;;;4.63;3.88;;;19.80;46.70;;;;;;5125017;28;20195;-83
2021/06/02 01:04:00;;;;;;;12.02;4.50;;;19.90;47.00;;;;;;5122336;28;20190;-83
2021/06/02 01:06:27;;;;;;;6.45;4.50;;;19.80;47.00;;;;;;5103208;28;20176;-84
2021/06/02 01:08:58;;;;;;;8.75;5.28;;;19.90;47.10;;;;;;5104121;28;20616;-83
2021/06/02 01:11:28;;;;;;;4.32;3.95;;;19.80;47.00;;;;;;5103947;28;20445;-83
2021/06/02 01:13:58;;;;;;;5.10;4.60;;;19.80;47.00;;;;;;5104222;28;20544;-83
2021/06/02 01:16:31;;;;;;;7.43;4.07;;;19.80;47.80;;;;;;5101416;28;20195;-83
2021/06/02 01:18:58;;;;;;;4.82;4.40;;;19.80;47.00;;;;;;5101449;28;20214;-82
2021/06/02 01:21:27;;;;;;;7.57;4.65;;;19.80;47.20;;;;;;5100117;28;20176;-82
2021/06/02 01:23:58;;;;;;;5.32;4.82;;;19.70;47.20;;;;;;5102807;28;20187;-81
2021/06/02 01:26:26;;;;;;;9.65;4.40;;;19.70;47.30;;;;;;5102255;28;20148;-83
2021/06/02 01:28:53;;;;;;;5.82;5.20;;;19.50;47.40;;;;;;5103817;28;20186;-83
2021/06/02 01:31:44;;;;;;;9.25;4.75;;;19.50;47.60;;;;;;5103790;28;20184;-83
2021/06/02 01:34:21;;;;;;;6.10;4.82;;;19.60;47.60;;;;;;5104699;28;20223;-84
2021/06/02 01:37:04;;;;;;;8.45;4.60;;;19.40;47.70;;;;;;5104065;28;20184;-84
2021/06/02 01:39:50;;;;;;;11.68;5.75;;;19.30;48.10;;;;;;5106468;28;20179;-84
2021/06/02 01:42:46;;;;;;;5.63;4.13;;;19.30;49.00;;;;;;5103750;28;20199;-84
2021/06/02 01:45:32;;;;;;;4.28;3.85;;;19.30;48.40;;;;;;5105441;28;20160;-83
2021/06/02 01:48:32;;;;;;;5.30;3.95;;;19.10;48.70;;;;;;5105619;28;20196;-84
2021/06/02 01:51:22;;;;;;;4.70;4.20;;;19.20;48.80;;;;;;5101883;28;20186;-84
2021/06/02 01:54:12;;;;;;;5.90;5.38;;;19.20;48.60;;;;;;5102868;28;20245;-84
2021/06/02 01:56:59;;;;;;;5.38;4.40;;;19.30;48.70;;;;;;5100751;28;20258;-84
2021/06/02 01:59:56;;;;;;;5.93;4.63;;;19.30;48.50;;;;;;5102154;28;20248;-84
2021/06/02 02:02:48;;;;;;;4.97;4.47;;;19.30;48.40;;;;;;5102084;28;20267;-84
2021/06/02 02:05:50;;;;;;;9.85;4.68;;;19.20;48.40;;;;;;5104786;28;20196;-84
2021/06/02 02:08:22;;;;;;;4.75;4.28;;;19.10;48.50;;;;;;5102561;28;20175;-84
2021/06/02 02:10:51;;;;;;;8.38;5.28;;;19.00;48.60;;;;;;5101841;28;20481;-84
2021/06/02 02:13:57;;;;;;;4.95;4.45;;;19.00;48.70;;;;;;5100064;28;20234;-84
2021/06/02 02:16:56;;;;;;;7.22;5.20;;;19.00;48.60;;;;;;5101304;28;20182;-83
2021/06/02 02:19:46;;;;;;;11.20;5.82;;;18.90;48.80;;;;;;5079707;28;20203;-83
2021/06/02 02:22:19;;;;;;;6.97;5.25;;;18.80;49.20;;;;;;5080610;28;20656;-84
2021/06/02 02:24:56;;;;;;;5.93;4.80;;;18.80;49.30;;;;;;5079605;28;20173;-83
2021/06/02 02:27:50;;;;;;;8.45;5.95;;;18.60;49.30;;;;;;5079837;28;20174;-83
2021/06/02 02:30:40;;;;;;;7.22;4.82;;;18.80;49.50;;;;;;5080932;28;20282;-83
2021/06/02 02:33:43;;;;;;;6.40;5.18;;;18.70;49.60;;;;;;5079238;28;20200;-83
2021/06/02 02:36:30;;;;;;;10.20;5.60;;;18.70;49.90;;;;;;5078469;28;20180;-83
2021/06/02 02:39:23;;;;;;;6.55;5.07;;;18.60;49.80;;;;;;5080608;28;20210;-83
2021/06/02 02:42:06;;;;;;;7.30;5.03;;;18.60;49.90;;;;;;5079297;28;20167;-83
2021/06/02 02:44:51;;;;;;;10.88;5.82;;;18.60;50.10;;;;;;5084191;28;20184;-83
2021/06/02 02:47:33;;;;;;;12.63;5.60;;;18.60;50.00;;;;;;5122177;28;20224;-82
2021/06/02 02:50:16;;;;;;;11.02;5.93;;;18.60;50.00;;;;;;5120231;28;20216;-83
2021/06/02 02:53:22;;;;;;;10.60;6.03;;;18.60;50.20;;;;;;5120314;28;20562;-83
2021/06/02 02:55:55;;;;;;;10.18;6.18;;;18.60;50.00;;;;;;5120335;28;20246;-83
2021/06/02 02:58:59;;;;;;;7.68;5.80;;;18.50;50.30;;;;;;5119757;28;20602;-83
2021/06/02 03:01:30;;;;;;;8.93;5.32;;;18.70;50.40;;;;;;5121867;28;20186;-83
2021/06/02 03:04:22;;;;;;;7.07;5.22;;;18.50;50.40;;;;;;5121432;28;20198;-83
2021/06/02 03:06:59;;;;;;;11.55;5.75;;;18.50;50.70;;;;;;5123078;28;20174;-83
2021/06/02 03:09:40;;;;;;;7.53;5.30;;;18.40;50.90;;;;;;5121508;28;20175;-82
2021/06/02 03:12:06;;;;;;;7.90;5.53;;;18.50;50.80;;;;;;5119958;28;20187;-84
2021/06/02 03:14:55;;;;;;;6.50;5.80;;;18.60;50.60;;;;;;5120619;28;20191;-82
2021/06/02 03:17:42;;;;;;;7.28;5.47;;;18.50;50.70;;;;;;5113875;28;20160;-83
2021/06/02 03:20:22;;;;;;;9.50;5.63;;;18.50;50.80;;;;;;5100739;28;20294;-82
2021/06/02 03:23:21;;;;;;;12.85;5.78;;;18.40;50.70;;;;;;5102557;28;20222;-83
2021/06/02 03:26:20;;;;;;;10.07;6.70;;;18.40;50.90;;;;;;5103429;28;20252;-83
2021/06/02 03:29:02;;;;;;;9.60;6.30;;;18.40;50.90;;;;;;5101250;28;20263;-83
2021/06/02 03:31:55;;;;;;;6.78;6.07;;;18.40;51.00;;;;;;5101097;28;20183;-83
2021/06/02 03:34:36;;;;;;;8.48;6.78;;;18.30;51.00;;;;;;5101547;28;20165;-83
2021/06/02 03:37:33;;;;;;;10.68;6.35;;;18.20;51.20;;;;;;5100162;28;20179;-83
2021/06/02 03:40:11;;;;;;;8.52;6.57;;;18.10;51.70;;;;;;5100995;28;20204;-82
2021/06/02 03:42:43;;;;;;;11.82;7.00;;;18.10;52.00;;;;;;5100851;28;20203;-83
2021/06/02 03:45:14;;;;;;;7.80;5.97;;;18.10;52.20;;;;;;5089512;28;20738;-83
2021/06/02 03:47:52;;;;;;;11.60;6.88;;;18.00;52.40;;;;;;5079692;28;20173;-84
2021/06/02 03:50:29;;;;;;;8.48;7.07;;;18.00;52.40;;;;;;5081007;28;20168;-83
2021/06/02 03:53:29;;;;;;;8.50;6.07;;;18.10;52.50;;;;;;5084470;28;20262;-82
2021/06/02 03:56:05;;;;;;;9.60;6.80;;;18.10;52.30;;;;;;5084484;28;20192;-83
2021/06/02 03:59:22;;;;;;;7.72;6.45;;;18.10;52.20;;;;;;5085537;28;20194;-82
2021/06/02 04:01:48;;;;;;;10.40;7.53;;;18.00;52.20;;;;;;5051721;28;20184;-83
2021/06/02 04:04:37;;;;;;;8.93;7.37;;;18.00;52.40;;;;;;5086391;28;20659;-83
2021/06/02 04:07:02;;;;;;;8.40;6.20;;;17.90;52.40;;;;;;5124465;28;20164;-83
2021/06/02 04:09:32;;;;;;;9.53;7.47;;;18.00;52.40;;;;;;5126701;28;20203;-82
2021/06/02 04:12:19;;;;;;;9.98;7.40;;;17.90;52.60;;;;;;5123869;28;20494;-82
2021/06/02 04:14:59;;;;;;;11.10;7.55;;;17.80;52.60;;;;;;5122620;28;20190;-84
2021/06/02 04:17:26;;;;;;;8.35;6.78;;;18.00;52.60;;;;;;5112715;28;20182;-83
2021/06/02 04:19:53;;;;;;;11.95;7.55;;;18.00;52.60;;;;;;5101100;28;20669;-83
2021/06/02 04:22:21;;;;;;;14.90;6.95;;;18.00;52.60;;;;;;5101553;28;20287;-83
2021/06/02 04:24:48;;;;;;;9.13;7.78;;;18.00;52.60;;;;;;5101606;28;20211;-83
2021/06/02 04:27:16;;;;;;;12.82;6.85;;;18.00;52.50;;;;;;5101985;28;20199;-83
2021/06/02 04:29:46;;;;;;;9.10;7.60;;;18.10;52.40;;;;;;5101195;28;20262;-81
2021/06/02 04:32:12;;;;;;;8.98;8.13;;;18.10;52.30;;;;;;5101174;28;20195;-81
2021/06/02 04:34:38;;;;;;;9.40;8.20;;;18.20;52.30;;;;;;5102768;28;20172;-82
2021/06/02 04:37:07;;;;;;;12.40;7.57;;;18.10;52.30;;;;;;5102583;28;20406;-82
2021/06/02 04:39:36;;;;;;;10.40;7.10;;;18.10;52.40;;;;;;5100902;28;20198;-84
2021/06/02 04:42:05;;;;;;;11.90;8.30;;;18.10;52.50;;;;;;5101692;28;20171;-83
2021/06/02 04:44:33;;;;;;;10.48;6.82;;;18.10;52.50;;;;;;5097421;28;20236;-84
2021/06/02 04:46:59;;;;;;;10.88;7.45;;;18.20;52.40;;;;;;5102613;28;20198;-84
2021/06/02 04:49:38;;;;;;;9.38;7.72;;;18.20;52.50;;;;;;5100663;28;20194;-84
2021/06/02 04:52:32;;;;;;;9.80;6.97;;;18.30;52.50;;;;;;5100330;28;20564;-83
2021/06/02 04:55:35;;;;;;;18.75;7.97;;;18.30;52.40;;;;;;5101044;28;20164;-83
2021/06/02 04:58:20;;;;;;;13.52;9.18;;;18.40;52.20;;;;;;5100525;28;20168;-82
2021/06/02 05:00:54;;;;;;;8.80;7.55;;;18.50;52.00;;;;;;5099519;28;20211;-83
2021/06/02 05:03:43;;;;;;;10.98;7.70;;;18.70;51.60;;;;;;5111957;28;20218;-82
2021/06/02 05:06:31;;;;;;;9.20;8.30;;;18.70;51.30;;;;;;5064260;28;20190;-83
2021/06/02 05:09:15;;;;;;;12.27;8.65;;;18.90;51.10;;;;;;5098152;28;20169;-83
2021/06/02 05:11:59;;;;;;;8.55;7.53;;;19.00;50.60;;;;;;5082218;28;20196;-82
2021/06/02 05:14:53;;;;;;;12.55;8.52;;;19.20;50.10;;;;;;5085936;28;20180;-82
2021/06/02 05:17:24;;;;;;;11.57;8.77;;;19.90;49.10;;;;;;5091138;28;20240;-84
2021/06/02 05:20:24;;;;;;;12.63;8.07;;;21.10;47.30;;;;;;5082300;28;20201;-83
2021/06/02 05:23:11;;;;;;;10.33;7.87;;;22.50;44.00;;;;;;5102246;28;20475;-83
2021/06/02 05:26:07;;;;;;;9.43;7.80;;;24.40;40.20;;;;;;5100715;28;20413;-83
2021/06/02 05:29:18;;;;;;;9.53;7.43;;;25.40;35.60;;;;;;5100815;28;20420;-83
2021/06/02 05:31:52;;;;;;;8.37;7.57;;;27.20;33.40;;;;;;5074411;28;20784;-82
2021/06/02 05:34:21;;;;;;;8.30;7.60;;;28.70;30.10;;;;;;5101592;28;20398;-83
2021/06/02 05:37:09;;;;;;;10.90;9.00;;;29.60;30.00;;;;;;5099960;28;20388;-83
2021/06/02 05:40:02;;;;;;;13.80;7.63;;;30.20;30.00;;;;;;5101696;28;20445;-83
2021/06/02 05:42:59;;;;;;;13.83;8.10;;;30.80;30.00;;;;;;5062617;28;20446;-83
2021/06/02 05:46:08;;;;;;;9.93;7.30;;;31.00;30.00;;;;;;5101888;28;20450;-83
2021/06/02 05:49:07;;;;;;;9.07;8.17;;;31.60;30.00;;;;;;5101658;28;20387;-83
2021/06/02 05:52:03;;;;;;;9.43;8.03;;;32.00;30.00;;;;;;5079481;28;20433;-83
2021/06/02 05:54:41;;;;;;;10.43;7.10;;;32.50;30.10;;;;;;5079348;28;20460;-83
2021/06/02 05:57:06;;;;;;;13.40;7.03;;;32.60;30.10;;;;;;5079298;28;20411;-83
2021/06/02 05:59:50;;;;;;;15.40;8.63;;;32.70;30.10;;;;;;5080197;28;20485;-83
2021/06/02 06:03:01;;;;;;;8.00;7.30;;;32.70;30.10;;;;;;5078159;28;20295;-83
2021/06/02 06:06:01;;;;;;;9.40;8.50;;;33.20;30.10;;;;;;5102061;28;20427;-83
2021/06/02 06:09:05;;;;;;;8.80;7.90;;;33.60;30.10;;;;;;5120247;28;20409;-82
2021/06/02 06:11:51;;;;;;;10.33;9.33;;;33.60;30.10;;;;;;5101237;28;20469;-81
2021/06/02 06:14:39;;;;;;;10.70;6.97;;;33.50;30.10;;;;;;5081801;28;20470;-84
2021/06/02 06:17:13;;;;;;;10.83;7.10;;;34.10;30.10;;;;;;5095110;28;20418;-83
2021/06/02 06:19:51;;;;;;;8.67;7.77;;;34.40;30.10;;;;;;5089077;28;20521;-83
2021/06/02 06:22:38;;;;;;;8.53;7.60;;;34.30;30.10;;;;;;5095788;28;20878;-83
2021/06/02 06:25:17;;;;;;;8.00;7.10;;;34.00;30.10;;;;;;5099457;28;20414;-82
2021/06/02 06:27:54;;;;;;;9.97;8.30;;;33.10;30.10;;;;;;5096122;28;20411;-83
2021/06/02 06:30:25;;;;;;;11.57;7.43;;;32.50;30.10;;;;;;5080570;28;20433;-83
2021/06/02 06:32:53;;;;;;;10.00;7.63;;;32.70;30.10;;;;;;5080751;28;20434;-83
2021/06/02 06:35:21;;;;;;;13.10;7.67;;;33.00;30.10;;;;;;5099286;28;20968;-83
2021/06/02 06:37:50;;;;;;;14.97;7.97;;;31.30;30.10;;;;;;5097144;28;20959;-83
2021/06/02 06:40:21;;;;;;;9.80;7.00;;;30.90;30.10;;;;;;5094375;28;20551;-83
2021/06/02 06:42:52;;;;;;;10.80;7.23;;;31.00;30.00;;;;;;5099032;28;20476;-83
2021/06/02 06:45:32;;;;;;;10.53;6.57;;;30.80;30.00;;;;;;5099376;28;20406;-83
2021/06/02 06:48:13;;;;;;;7.83;6.90;;;29.90;30.00;;;;;;5099851;28;20482;-82
2021/06/02 06:50:40;;;;;;;9.63;8.07;;;30.20;30.00;;;;;;5098971;28;20484;-83
2021/06/02 06:53:08;;;;;;;16.03;7.33;;;30.60;30.00;;;;;;5099897;28;20952;-83
2021/06/02 06:55:35;;;;;;;8.30;7.20;;;30.00;30.00;;;;;;5100363;28;20410;-82
2021/06/02 06:58:01;;;;;;;9.63;6.47;;;30.00;30.00;;;;;;5100523;28;20891;-82
2021/06/02 07:00:28;;;;;;;13.13;7.03;;;29.90;30.00;;;;;;5109894;28;20560;-83
2021/06/02 07:02:54;;;;;;;7.07;6.37;;;29.40;30.00;;;;;;5120394;28;20449;-83
2021/06/02 07:05:22;;;;;;;10.50;6.63;;;28.80;30.00;;;;;;5110687;28;20409;-83
2021/06/02 07:07:49;;;;;;;7.70;6.07;;;28.30;30.00;;;;;;5100150;28;20436;-83
2021/06/02 07:10:15;;;;;;;11.47;5.67;;;28.30;30.00;;;;;;5100034;28;20405;-83
2021/06/02 07:12:46;;;;;;;8.10;5.73;;;28.20;30.00;;;;;;5098849;28;20461;-83
2021/06/02 07:15:14;;;;;;;7.73;6.10;;;27.90;30.00;;;;;;5099611;28;20179;-83
2021/06/02 07:17:47;;;;;;;6.60;5.70;;;27.60;30.00;;;;;;5098428;28;20421;-83
2021/06/02 07:20:32;;;;;;;5.63;4.80;;;27.50;30.00;;;;;;5099479;28;20962;-84
2021/06/02 07:22:58;;;;;;;11.50;5.40;;;27.60;30.00;;;;;;5098146;28;20437;-83
2021/06/02 07:25:26;;;;;;;8.27;5.17;;;27.60;30.00;;;;;;5097343;28;20423;-83
2021/06/02 07:27:54;;;;;;;10.57;5.57;;;27.70;30.00;;;;;;5101948;28;20428;-83
2021/06/02 07:30:22;;;;;;;9.83;5.63;;;27.60;30.00;;;;;;5102381;28;20441;-83
2021/06/02 07:32:48;;;;;;;10.47;5.50;;;27.50;30.00;;;;;;5101085;28;20441;-83
2021/06/02 07:35:14;;;;;;;8.27;6.57;;;27.30;30.40;;;;;;5101207;28;20802;-83
2021/06/02 07:37:40;;;;;;;6.43;5.83;;;27.10;30.40;;;;;;5102170;28;20427;-83
2021/06/02 07:40:07;;;;;;;6.97;5.20;;;26.70;30.70;;;;;;5103359;28;20197;-83
2021/06/02 07:42:34;;;;;;;9.03;5.70;;;26.50;31.10;;;;;;5101778;28;20484;-84
2021/06/02 07:44:59;;;;;;;8.30;5.13;;;26.10;32.10;;;;;;5101397;28;20407;-85
2021/06/02 07:47:26;;;;;;;5.30;4.60;;;25.90;32.70;;;;;;5099990;28;20991;-85
2021/06/02 07:49:51;;;;;;;8.73;5.70;;;25.80;33.10;;;;;;5101535;28;20422;-85
2021/06/02 07:52:17;;;;;;;6.60;5.93;;;25.60;33.70;;;;;;5099049;28;20437;-83
2021/06/02 07:54:43;;;;;;;6.07;5.17;;;25.50;33.60;;;;;;5102056;28;20593;-84
2021/06/02 07:57:09;;;;;;;7.93;7.13;;;25.30;33.70;;;;;;5102315;28;20179;-84
2021/06/02 07:59:35;;;;;;;5.67;5.10;;;25.00;35.00;;;;;;5101916;28;20553;-84
2021/06/02 08:02:02;;;;;;;7.50;4.77;;;25.00;35.80;;;;;;5086693;28;20504;-83
2021/06/02 08:04:32;;;;;;;10.13;5.57;;;25.00;36.20;;;;;;5088145;28;20174;-84
2021/06/02 08:07:00;;;;;;;6.80;5.47;;;24.90;35.90;;;;;;5121984;28;20420;-84
2021/06/02 08:09:26;;;;;;;11.03;6.50;;;24.80;36.00;;;;;;5122292;28;20416;-84
2021/06/02 08:11:52;;;;;;;5.13;4.50;;;24.80;35.80;;;;;;5123586;28;20523;-84
2021/06/02 08:14:18;;;;;;;6.93;5.63;;;24.70;35.70;;;;;;5120973;28;20432;-84
2021/06/02 08:16:44;;;;;;;10.10;5.53;;;24.60;36.00;;;;;;5119320;28;20183;-84
2021/06/02 08:19:10;;;;;;;10.83;5.87;;;24.60;36.10;;;;;;5102009;28;20199;-84
2021/06/02 08:21:36;;;;;;;8.20;5.00;;;24.50;36.20;;;;;;5101225;28;20416;-83
2021/06/02 08:24:02;;;;;;;11.20;6.10;;;24.40;36.60;;;;;;5102989;28;20465;-84
2021/06/02 08:26:28;;;;;;;10.13;6.53;;;24.40;36.90;;;;;;5103984;28;20179;-84
2021/06/02 08:28:57;;;;;;;9.43;5.33;;;24.40;37.10;;;;;;5107181;28;20920;-83
2021/06/02 08:31:23;;;;;;;5.83;5.00;;;24.40;37.10;;;;;;5110527;28;20179;-84
2021/06/02 08:33:49;;;;;;;8.80;4.40;;;24.50;37.40;;;;;;5110847;28;20438;-83
2021/06/02 08:36:15;;;;;;;5.97;4.50;;;24.60;36.40;;;;;;5114328;28;20414;-82
2021/06/02 08:38:40;;;;;;;8.00;4.30;;;24.90;36.20;;;;;;5125346;28;20428;-82
2021/06/02 08:41:07;;;;;;;8.47;5.63;;;24.90;35.70;;;;;;5134091;28;20189;-83
2021/06/02 08:43:34;;;;;;;7.10;4.50;;;25.10;36.10;;;;;;5125910;28;20237;-84
2021/06/02 08:46:00;;;;;;;5.40;4.10;;;25.10;35.40;;;;;;5124098;28;20431;-84
2021/06/02 08:48:26;;;;;;;5.33;4.57;;;25.20;35.50;;;;;;5119216;28;20429;-83
2021/06/02 08:50:52;;;;;;;4.83;4.37;;;25.20;34.20;;;;;;5125276;28;20413;-82
2021/06/02 08:53:19;;;;;;;5.23;3.60;;;25.10;32.70;;;;;;5124532;28;20458;-82
2021/06/02 08:55:46;;;;;;;3.70;3.20;;;25.20;32.90;;;;;;5120129;28;20915;-84
2021/06/02 08:58:19;;;;;;;4.50;3.90;;;25.40;33.00;;;;;;5123022;28;20405;-82
2021/06/02 09:00:45;;;;;;;5.17;3.77;;;25.60;33.30;;;;;;5107762;28;20530;-85
2021/06/02 09:03:12;;;;;;;4.40;3.57;;;25.60;33.10;;;;;;5098839;28;20433;-83
2021/06/02 09:05:38;;;;;;;4.33;3.20;;;25.70;31.50;;;;;;5107816;28;20175;-84
2021/06/02 09:08:05;;;;;;;5.10;3.77;;;25.80;31.60;;;;;;5117317;28;20993;-83
2021/06/02 09:10:40;;;;;;;5.03;3.50;;;25.60;30.20;;;;;;5121147;28;20900;-84
2021/06/02 09:13:35;;;;;;;6.27;3.53;;;25.80;30.70;;;;;;5120903;28;20484;-83
2021/06/02 09:16:01;;;;;;;6.00;2.80;;;25.90;31.20;;;;;;5104964;28;20508;-83
2021/06/02 09:18:27;;;;;;;3.47;3.10;;;26.00;30.10;;;;;;5103922;28;20836;-82
2021/06/02 09:20:56;;;;;;;3.50;3.20;;;25.80;30.00;;;;;;5100371;28;20619;-81
2021/06/02 09:23:43;;;;;;;3.87;3.47;;;25.80;30.40;;;;;;5099386;28;20202;-82
2021/06/02 09:26:15;;;;;;;4.90;3.53;;;26.10;30.90;;;;;;5099411;28;20410;-82
2021/06/02 09:28:45;;;;;;;4.03;3.37;;;26.10;30.00;;;;;;5099110;28;20417;-81
2021/06/02 09:31:26;;;;;;;4.13;3.00;;;26.10;30.00;;;;;;5099868;28;20452;-82
2021/06/02 09:34:01;;;;;;;8.43;2.90;;;26.10;30.00;;;;;;5101984;28;20967;-85
2021/06/02 09:36:35;;;;;;;8.50;3.03;;;26.10;30.00;;;;;;5097874;28;20510;-85
2021/06/02 09:39:15;;;;;;;7.63;4.20;;;26.40;30.00;;;;;;5095322;28;20446;-85
2021/06/02 09:42:00;;;;;;;3.13;2.50;;;26.50;30.00;;;;;;5094322;28;20414;-85
2021/06/02 09:44:31;;;;;;;7.27;3.37;;;26.40;30.00;;;;;;5074599;28;20411;-86
2021/06/02 09:47:07;;;;;;;2.90;2.70;;;26.50;30.00;;;;;;5074500;28;20463;-86
2021/06/02 09:49:47;;;;;;;4.13;3.10;;;26.60;30.00;;;;;;5075882;28;20471;-86
2021/06/02 09:52:13;;;;;;;3.00;2.80;;;26.70;30.00;;;;;;5075399;28;20460;-83
2021/06/02 09:54:39;;;;;;;8.90;2.63;;;26.60;30.00;;;;;;5080044;28;20467;-82
2021/06/02 09:57:16;;;;;;;3.60;2.43;;;26.70;30.00;;;;;;5079330;28;20411;-82
2021/06/02 09:59:56;;;;;;;6.07;2.37;;;26.60;30.00;;;;;;5080001;28;20264;-83
2021/06/02 10:02:23;;;;;;;6.80;3.37;;;26.30;30.00;;;;;;5078545;28;20437;-83
2021/06/02 10:05:18;;;;;;;3.00;2.70;;;26.20;30.00;;;;;;5090540;28;20425;-82
2021/06/02 10:07:46;;;;;;;3.07;2.87;;;26.40;30.00;;;;;;5102599;28;20624;-82
2021/06/02 10:10:12;;;;;;;3.63;3.00;;;26.50;30.00;;;;;;5121068;28;20412;-82
2021/06/02 10:12:38;;;;;;;3.50;3.20;;;26.60;30.00;;;;;;5118712;28;20504;-83
2021/06/02 10:15:05;;;;;;;3.47;3.17;;;26.80;30.00;;;;;;5119573;28;20178;-83
2021/06/02 10:17:36;;;;;;;3.27;2.80;;;26.80;30.00;;;;;;5110308;28;20421;-82
2021/06/02 10:20:13;;;;;;;6.30;3.13;;;26.70;30.00;;;;;;5099510;28;20452;-82
2021/06/02 10:22:41;;;;;;;3.80;3.10;;;26.70;30.00;;;;;;5099112;28;20436;-83
2021/06/02 10:25:09;;;;;;;2.97;2.77;;;26.70;30.00;;;;;;5099459;28;20480;-83
2021/06/02 10:27:35;;;;;;;5.73;3.00;;;26.80;30.00;;;;;;5098848;28;20406;-83
2021/06/02 10:30:05;;;;;;;4.83;2.60;;;26.90;30.00;;;;;;5098684;28;20427;-83
2021/06/02 10:32:31;;;;;;;4.13;2.80;;;26.80;30.00;;;;;;5099268;28;20460;-83
2021/06/02 10:34:56;;;;;;;2.57;2.37;;;26.80;30.00;;;;;;5099484;28;20441;-83
2021/06/02 10:37:24;;;;;;;2.73;2.50;;;26.60;30.00;;;;;;5098887;28;20182;-83
2021/06/02 10:40:01;;;;;;;4.03;3.37;;;26.70;30.10;;;;;;5078444;28;20218;-82
2021/06/02 10:42:48;;;;;;;3.40;3.20;;;26.80;30.00;;;;;;5079683;28;20928;-84
2021/06/02 10:45:31;;;;;;;9.50;2.53;;;27.00;30.00;;;;;;5079581;28;20896;-83
2021/06/02 10:47:59;;;;;;;14.23;3.03;;;26.90;30.10;;;;;;5080841;28;20413;-82
2021/06/02 10:50:34;;;;;;;2.67;2.47;;;27.00;30.00;;;;;;5079260;28;20621;-84
2021/06/02 10:53:04;;;;;;;4.97;3.00;;;27.10;30.00;;;;;;5079004;28;20461;-83
2021/06/02 10:55:43;;;;;;;2.60;2.40;;;27.30;30.10;;;;;;5077607;28;20449;-83
2021/06/02 10:58:21;;;;;;;2.53;2.30;;;27.50;30.10;;;;;;5078229;28;20422;-84
2021/06/02 11:00:49;;;;;;;2.67;2.47;;;27.50;30.10;;;;;;5090988;28;20475;-85
2021/06/02 11:03:28;;;;;;;4.60;2.40;;;27.60;30.10;;;;;;5097760;28;20449;-86
2021/06/02 11:06:12;;;;;;;5.10;2.93;;;27.70;30.10;;;;;;5113521;28;20919;-86
2021/06/02 11:08:53;;;;;;;6.63;3.10;;;27.70;30.10;;;;;;5120776;28;20800;-86
2021/06/02 11:11:29;;;;;;;4.10;2.37;;;27.60;30.10;;;;;;5119800;28;20432;-85
2021/06/02 11:14:17;;;;;;;2.67;2.40;;;27.60;30.10;;;;;;5119801;28;20442;-86
2021/06/02 11:16:45;;;;;;;2.30;2.10;;;27.60;30.10;;;;;;5117808;28;20505;-86
2021/06/02 11:19:12;;;;;;;2.43;2.23;;;27.80;30.10;;;;;;5101951;28;20463;-86
2021/06/02 11:21:59;;;;;;;4.03;2.50;;;27.80;30.10;;;;;;5101286;28;20409;-85
2021/06/02 11:24:34;;;;;;;2.03;1.93;;;27.80;30.10;;;;;;5099678;28;20496;-86
2021/06/02 11:27:12;;;;;;;4.30;2.07;;;27.90;30.10;;;;;;5099793;28;20413;-85
2021/06/02 11:29:50;;;;;;;2.70;2.37;;;27.90;30.10;;;;;;5102847;28;20423;-84
2021/06/02 11:32:31;;;;;;;2.33;2.07;;;27.90;30.10;;;;;;5099027;28;20429;-84
2021/06/02 11:35:03;;;;;;;2.97;2.50;;;27.80;30.10;;;;;;5104361;28;20420;-84
2021/06/02 11:37:31;;;;;;;4.97;2.77;;;27.80;30.10;;;;;;5103641;28;20422;-83
2021/06/02 11:39:59;;;;;;;3.70;3.00;;;27.80;30.10;;;;;;5104202;28;20477;-84
2021/06/02 11:42:52;;;;;;;2.67;2.47;;;27.80;30.10;;;;;;5102537;28;20440;-84
2021/06/02 11:45:21;;;;;;;2.50;2.30;;;27.80;30.10;;;;;;5086609;28;20494;-84
2021/06/02 11:47:56;;;;;;;5.07;2.80;;;27.80;30.10;;;;;;5101892;28;20873;-85
2021/06/02 11:50:25;;;;;;;2.83;2.33;;;27.80;30.10;;;;;;5101325;28;20474;-85
2021/06/02 11:53:02;;;;;;;6.43;2.33;;;27.90;30.10;;;;;;5084731;28;20528;-84
2021/06/02 11:55:30;;;;;;;4.33;2.40;;;27.90;30.10;;;;;;5080374;28;20475;-85
2021/06/02 11:57:56;;;;;;;3.80;2.70;;;27.90;30.10;;;;;;5080454;28;20537;-84
2021/06/02 12:00:23;;;;;;;6.73;2.47;;;28.00;30.10;;;;;;5086106;28;20473;-85
2021/06/02 12:02:54;;;;;;;2.67;2.50;;;27.90;30.10;;;;;;5101228;28;20517;-83
2021/06/02 12:05:22;;;;;;;4.07;2.50;;;27.90;30.10;;;;;;5112331;28;20412;-84
2021/06/02 12:07:49;;;;;;;3.07;2.80;;;27.90;30.10;;;;;;5121640;28;20879;-84
2021/06/02 12:10:16;;;;;;;2.20;2.00;;;27.90;30.10;;;;;;5122172;28;20416;-84
2021/06/02 12:12:44;;;;;;;2.60;2.40;;;28.10;30.10;;;;;;5121982;28;20451;-85
2021/06/02 12:15:13;;;;;;;3.43;2.63;;;28.10;30.10;;;;;;5120117;28;20416;-85
2021/06/02 12:17:39;;;;;;;2.07;1.97;;;28.40;30.10;;;;;;5109335;28;20437;-85
2021/06/02 12:20:17;;;;;;;3.90;2.13;;;28.20;30.10;;;;;;5100539;28;20499;-84
2021/06/02 12:22:43;;;;;;;5.40;3.00;;;28.30;30.10;;;;;;5099124;28;20485;-84
2021/06/02 12:25:17;;;;;;;3.30;2.70;;;28.30;30.10;;;;;;5096724;28;20423;-84
2021/06/02 12:27:51;;;;;;;3.90;2.23;;;28.10;30.10;;;;;;5080518;28;20411;-84
2021/06/02 12:30:19;;;;;;;3.33;3.03;;;28.20;30.10;;;;;;5087117;28;20423;-84
2021/06/02 12:32:53;;;;;;;3.43;2.80;;;28.20;30.10;;;;;;5099591;28;20453;-85
2021/06/02 12:35:37;;;;;;;3.67;2.80;;;28.30;30.10;;;;;;5100083;28;20398;-84
2021/06/02 12:38:14;;;;;;;2.43;2.23;;;28.30;30.10;;;;;;5092177;28;20423;-85
2021/06/02 12:40:45;;;;;;;2.70;2.53;;;28.30;30.10;;;;;;5080091;28;20933;-84
2021/06/02 12:43:17;;;;;;;3.37;2.67;;;28.20;30.10;;;;;;5080871;28;20422;-84
2021/06/02 12:45:44;;;;;;;3.73;2.40;;;28.20;30.10;;;;;;5081856;28;20411;-84
2021/06/02 12:48:12;;;;;;;2.70;2.50;;;28.30;30.10;;;;;;5082095;28;20426;-85
2021/06/02 12:50:45;;;;;;;3.73;2.60;;;28.30;30.10;;;;;;5082207;28;20414;-84
2021/06/02 12:53:12;;;;;;;6.67;2.40;;;28.10;30.10;;;;;;5092527;28;20521;-85
2021/06/02 12:55:41;;;;;;;2.73;2.50;;;28.30;30.10;;;;;;5095695;28;20430;-85
2021/06/02 12:58:16;;;;;;;3.13;2.60;;;28.20;30.10;;;;;;5101699;28;20422;-85
2021/06/02 13:00:43;;;;;;;6.17;2.83;;;28.30;30.10;;;;;;5100749;28;20931;-84
2021/06/02 13:03:15;;;;;;;4.27;2.87;;;28.50;30.10;;;;;;5099856;28;20452;-85
2021/06/02 13:05:45;;;;;;;3.00;2.73;;;28.40;30.10;;;;;;5113252;28;20428;-84
2021/06/02 13:08:11;;;;;;;3.77;3.10;;;28.60;30.10;;;;;;5117507;28;20848;-85
2021/06/02 13:10:39;;;;;;;4.60;2.40;;;28.80;30.10;;;;;;5098457;28;20443;-86
2021/06/02 13:13:08;;;;;;;3.10;2.90;;;29.00;30.10;;;;;;5098831;28;20514;-85
2021/06/02 13:15:43;;;;;;;2.93;2.60;;;29.10;30.10;;;;;;5101743;28;20429;-85
2021/06/02 13:18:19;;;;;;;3.83;3.10;;;28.80;30.10;;;;;;5101999;28;20405;-85
2021/06/02 13:20:45;;;;;;;2.57;2.37;;;28.90;30.10;;;;;;5100630;28;20466;-85
2021/06/02 13:23:21;;;;;;;3.60;2.70;;;28.70;30.10;;;;;;5099932;28;20507;-85
2021/06/02 13:26:13;;;;;;;3.33;2.77;;;28.70;30.10;;;;;;5099628;28;20410;-85
2021/06/02 13:28:57;;;;;;;3.33;2.60;;;28.90;30.10;;;;;;5100259;28;20436;-85